Time;durP1;ratioP1;P1;durP2;ratioP2;P2;SDS_P1;SDS_P2;PMS_P1;PMS_P2;Temp;Humidity;BMP_temperature;BMP_pressure;BME280_temperature;BME280_humidity;BME280_pressure;Samples;Min_cycle;Max_cycle;Signal;HPM_P1;HPM_P2
2023/12/20 00:01:23;;;;;;;35.55;15.00;;;;;;;4.40;100.00;101458.19;5021669;28;20036;-82
2023/12/20 00:03:48;;;;;;;32.03;14.73;;;;;;;4.30;100.00;101441.59;5015569;28;20074;-81
2023/12/20 00:06:13;;;;;;;28.83;12.32;;;;;;;4.32;100.00;101455.66;5022527;28;20041;-83
2023/12/20 00:08:39;;;;;;;32.88;12.55;;;;;;;4.25;100.00;101449.59;5031110;28;20037;-82
2023/12/20 00:11:05;;;;;;;24.35;10.55;;;;;;;4.23;100.00;101461.06;4998834;28;20191;-82
2023/12/20 00:13:30;;;;;;;26.92;10.50;;;;;;;4.16;100.00;101465.53;5012647;28;20030;-81
2023/12/20 00:15:55;;;;;;;31.50;10.73;;;;;;;4.12;100.00;101466.47;5017546;28;20044;-83
2023/12/20 00:18:21;;;;;;;26.65;9.75;;;;;;;4.05;100.00;101462.19;5020672;28;20046;-82
2023/12/20 00:20:46;;;;;;;27.58;9.88;;;;;;;3.88;100.00;101446.59;5016952;28;20037;-82
2023/12/20 00:23:11;;;;;;;27.10;9.95;;;;;;;3.97;100.00;101470.22;5024601;28;20034;-83
2023/12/20 00:25:37;;;;;;;21.55;9.05;;;;;;;3.92;100.00;101479.03;5033276;28;20090;-83
2023/12/20 00:28:03;;;;;;;20.42;8.73;;;;;;;3.88;100.00;101466.81;5009297;28;20566;-81
2023/12/20 00:30:28;;;;;;;23.00;8.65;;;;;;;3.85;100.00;101477.41;5019407;28;20048;-82
2023/12/20 00:32:55;;;;;;;19.85;7.78;;;;;;;3.82;100.00;101456.38;5020477;28;20104;-82
2023/12/20 00:35:21;;;;;;;23.23;7.72;;;;;;;3.87;100.00;101465.94;5027399;28;20061;-81
2023/12/20 00:37:46;;;;;;;24.10;8.73;;;;;;;3.84;100.00;101465.97;5025967;28;20025;-81
2023/12/20 00:40:11;;;;;;;20.35;8.43;;;;;;;3.68;100.00;101453.94;5029384;28;20120;-82
2023/12/20 00:42:37;;;;;;;26.08;7.88;;;;;;;3.70;100.00;101471.44;5028355;28;20089;-81
2023/12/20 00:45:04;;;;;;;27.65;7.63;;;;;;;3.59;100.00;101447.00;5035324;28;20044;-83
2023/12/20 00:47:30;;;;;;;27.73;8.02;;;;;;;3.60;100.00;101448.75;5030110;28;20177;-81
2023/12/20 00:49:55;;;;;;;23.55;7.00;;;;;;;3.61;100.00;101453.13;5018029;28;20030;-81
2023/12/20 00:52:22;;;;;;;22.73;7.32;;;;;;;3.60;100.00;101447.88;5026991;28;20468;-83
2023/12/20 00:54:48;;;;;;;22.00;7.15;;;;;;;3.52;100.00;101449.75;5021929;28;20396;-83
2023/12/20 00:57:13;;;;;;;24.33;7.07;;;;;;;3.50;100.00;101447.09;5030530;28;20037;-82
2023/12/20 00:59:42;;;;;;;19.67;6.40;;;;;;;3.53;100.00;101457.59;5020115;28;20021;-83
2023/12/20 01:02:07;;;;;;;19.88;6.10;;;;;;;3.40;100.00;101437.59;5006878;28;20598;-82
2023/12/20 01:04:33;;;;;;;24.65;6.40;;;;;;;3.47;100.00;101449.78;5026037;28;20046;-82
2023/12/20 01:06:58;;;;;;;20.42;6.25;;;;;;;3.48;100.00;101456.78;5026878;28;20029;-83
2023/12/20 01:09:26;;;;;;;23.08;7.28;;;;;;;3.44;100.00;101449.81;5020032;28;20036;-82
2023/12/20 01:11:52;;;;;;;25.33;7.53;;;;;;;3.48;100.00;101470.81;5027485;28;20174;-82
2023/12/20 01:14:17;;;;;;;17.92;6.72;;;;;;;3.45;100.00;101460.31;5005276;28;20044;-83
2023/12/20 01:16:43;;;;;;;25.40;6.90;;;;;;;3.41;100.00;101442.81;5033393;28;20071;-82
2023/12/20 01:19:08;;;;;;;25.55;7.35;;;;;;;3.45;100.00;101465.59;5028537;28;20033;-83
2023/12/20 01:21:33;;;;;;;26.40;7.25;;;;;;;3.37;100.00;101464.81;5034499;28;20041;-83
2023/12/20 01:23:58;;;;;;;25.02;7.50;;;;;;;3.36;100.00;101472.72;5031918;28;21116;-83
2023/12/20 01:26:24;;;;;;;20.85;6.38;;;;;;;3.34;100.00;101472.72;5002745;28;20034;-82
2023/12/20 01:28:49;;;;;;;17.63;6.25;;;;;;;3.40;100.00;101467.41;5018758;28;20034;-82
2023/12/20 01:31:14;;;;;;;16.17;6.13;;;;;;;3.47;100.00;101462.97;5018295;28;20037;-83
2023/12/20 01:33:42;;;;;;;19.40;6.15;;;;;;;3.49;100.00;101458.53;5027349;28;20053;-81
2023/12/20 01:36:08;;;;;;;23.10;7.05;;;;;;;3.50;100.00;101479.56;5022050;28;20104;-82
2023/12/20 01:38:33;;;;;;;23.17;6.63;;;;;;;3.48;100.00;101468.19;5020287;28;20475;-83
2023/12/20 01:41:00;;;;;;;25.27;6.80;;;;;;;3.47;100.00;101479.63;5010165;28;20119;-83
2023/12/20 01:43:25;;;;;;;24.73;6.90;;;;;;;3.45;100.00;101481.38;5024810;28;20033;-82
2023/12/20 01:45:51;;;;;;;15.98;6.50;;;;;;;3.41;100.00;101473.53;5011213;28;20037;-83
2023/12/20 01:48:18;;;;;;;23.85;7.15;;;;;;;3.40;100.00;101479.69;5020237;28;20187;-82
2023/12/20 01:50:45;;;;;;;19.40;6.38;;;;;;;3.35;100.00;101481.50;5026995;28;20105;-84
2023/12/20 01:53:15;;;;;;;18.42;6.60;;;;;;;3.38;100.00;101477.06;5025049;28;20034;-79
2023/12/20 01:55:41;;;;;;;25.55;7.43;;;;;;;3.42;100.00;101476.13;5029129;28;20049;-81
2023/12/20 01:58:13;;;;;;;27.40;7.25;;;;;;;3.53;100.00;101475.16;5022583;28;20065;-82
2023/12/20 02:00:39;;;;;;;18.48;6.78;;;;;;;3.53;100.00;101462.88;5017837;28;20040;-83
2023/12/20 02:03:04;;;;;;;22.50;7.05;;;;;;;3.49;100.00;101469.06;5029772;28;20034;-83
2023/12/20 02:05:31;;;;;;;20.42;7.15;;;;;;;3.44;100.00;101469.13;5004135;28;20056;-82
2023/12/20 02:07:57;;;;;;;23.85;7.07;;;;;;;3.46;100.00;101472.59;5030829;28;20080;-83
2023/12/20 02:10:23;;;;;;;26.23;6.97;;;;;;;3.45;100.00;101467.34;5035297;28;20333;-83
2023/12/20 02:12:48;;;;;;;24.27;7.68;;;;;;;3.42;100.00;101465.63;5023955;28;20124;-82
2023/12/20 02:15:15;;;;;;;24.55;7.85;;;;;;;3.39;100.00;101470.94;5022950;28;20053;-82
2023/12/20 02:17:45;;;;;;;20.65;6.70;;;;;;;3.34;100.00;101472.72;5003653;28;20034;-82
2023/12/20 02:20:11;;;;;;;17.67;6.95;;;;;;;3.18;100.00;101456.25;5018362;28;20033;-82
2023/12/20 02:22:36;;;;;;;24.05;7.93;;;;;;;3.29;100.00;101464.00;5021722;28;20041;-83
2023/12/20 02:25:02;;;;;;;21.05;7.25;;;;;;;3.44;100.00;101471.75;5025481;28;20041;-83
2023/12/20 02:27:28;;;;;;;19.13;7.13;;;;;;;3.50;100.00;101469.03;5025282;28;20080;-82
2023/12/20 02:29:54;;;;;;;26.40;8.35;;;;;;;3.53;100.00;101457.59;5020277;28;20041;-82
2023/12/20 02:32:20;;;;;;;24.33;7.65;;;;;;;3.56;100.00;101459.34;5027274;28;20056;-83
2023/12/20 02:34:48;;;;;;;21.42;7.53;;;;;;;3.56;100.00;101457.56;5021736;28;20111;-83
2023/12/20 02:37:13;;;;;;;23.23;8.15;;;;;;;3.53;100.00;101465.50;5009574;28;20029;-82
2023/12/20 02:39:39;;;;;;;24.95;8.23;;;;;;;3.48;100.00;101465.56;5026348;28;20044;-83
2023/12/20 02:42:04;;;;;;;17.48;6.97;;;;;;;3.33;100.00;101460.47;5017336;28;20033;-83
2023/12/20 02:44:29;;;;;;;28.95;7.75;;;;;;;3.38;100.00;101479.69;5025723;28;20041;-83
2023/12/20 02:46:55;;;;;;;22.38;7.57;;;;;;;3.32;100.00;101465.75;5025954;28;20040;-83
2023/12/20 02:49:20;;;;;;;21.77;7.82;;;;;;;3.38;100.00;101474.44;5028163;28;20164;-83
2023/12/20 02:51:46;;;;;;;19.67;8.00;;;;;;;3.32;100.00;101464.00;5020368;28;20080;-82
2023/12/20 02:54:11;;;;;;;24.77;8.13;;;;;;;3.33;100.00;101476.25;5008811;28;20440;-82
2023/12/20 02:56:36;;;;;;;21.73;7.45;;;;;;;3.34;100.00;101472.72;5028844;28;20029;-83
2023/12/20 02:59:02;;;;;;;24.80;7.72;;;;;;;3.38;100.00;101474.44;5045359;28;20071;-82
2023/12/20 03:01:28;;;;;;;24.63;7.28;;;;;;;3.41;100.00;101465.63;5013248;28;20029;-83
2023/12/20 03:03:53;;;;;;;24.42;7.80;;;;;;;3.44;100.00;101469.13;5014961;28;20030;-83
2023/12/20 03:06:19;;;;;;;27.80;8.23;;;;;;;3.36;100.00;101452.53;5020665;28;20506;-83
2023/12/20 03:08:45;;;;;;;26.83;7.97;;;;;;;3.42;100.00;101439.28;5021655;28;20049;-83
2023/12/20 03:11:10;;;;;;;23.85;7.50;;;;;;;3.51;100.00;101467.25;5020082;28;20056;-83
2023/12/20 03:13:35;;;;;;;27.45;7.40;;;;;;;3.45;100.00;101465.59;5026592;28;20530;-83
2023/12/20 03:16:01;;;;;;;30.30;8.02;;;;;;;3.35;100.00;101453.44;5019775;28;20044;-82
2023/12/20 03:18:27;;;;;;;23.48;7.75;;;;;;;3.31;100.00;101451.72;5030180;28;20033;-83
2023/12/20 03:20:53;;;;;;;30.13;9.48;;;;;;;3.33;100.00;101455.19;5023020;28;20091;-82
2023/12/20 03:23:18;;;;;;;24.75;8.80;;;;;;;3.30;100.00;101455.22;5007525;28;20049;-81
2023/12/20 03:25:44;;;;;;;28.17;9.18;;;;;;;3.28;100.00;101451.75;5019138;28;20030;-82
2023/12/20 03:28:09;;;;;;;22.08;8.95;;;;;;;3.22;100.00;101451.84;5024555;28;20476;-82
2023/12/20 03:30:34;;;;;;;33.53;10.30;;;;;;;3.21;100.00;101455.31;5026661;28;20088;-82
2023/12/20 03:33:00;;;;;;;23.42;10.38;;;;;;;3.16;100.00;101451.88;5040834;28;20042;-81
2023/12/20 03:35:25;;;;;;;25.05;10.50;;;;;;;3.15;100.00;101450.16;5021021;28;20045;-83
2023/12/20 03:37:51;;;;;;;28.52;11.40;;;;;;;3.11;100.00;101444.03;5012591;28;20500;-83
2023/12/20 03:40:16;;;;;;;29.40;10.60;;;;;;;3.11;100.00;101437.91;5026340;28;20228;-83
2023/12/20 03:42:44;;;;;;;30.40;11.80;;;;;;;3.22;100.00;101447.44;5025433;28;20099;-82
2023/12/20 03:45:10;;;;;;;31.60;12.32;;;;;;;3.31;100.00;101448.22;5037223;28;20049;-84
2023/12/20 03:47:35;;;;;;;25.45;11.25;;;;;;;3.35;100.00;101445.53;5027762;28;20118;-82
2023/12/20 03:50:00;;;;;;;29.95;11.75;;;;;;;3.35;100.00;101427.13;5021888;28;20064;-83
2023/12/20 03:52:26;;;;;;;35.50;12.65;;;;;;;3.44;100.00;101426.13;5024564;28;20033;-82
2023/12/20 03:54:51;;;;;;;25.17;11.50;;;;;;;3.43;100.00;101414.75;5023435;28;20504;-83
2023/12/20 03:57:16;;;;;;;33.70;11.32;;;;;;;3.46;100.00;101427.84;5022802;28;20041;-84
2023/12/20 03:59:44;;;;;;;30.98;12.18;;;;;;;3.55;100.00;101434.75;5020883;28;20045;-83
2023/12/20 04:02:10;;;;;;;27.25;11.57;;;;;;;3.58;100.00;101425.97;5024054;28;20098;-82
2023/12/20 04:04:35;;;;;;;31.25;11.00;;;;;;;3.62;100.00;101428.53;5008389;28;20033;-85
2023/12/20 04:07:01;;;;;;;33.75;12.00;;;;;;;3.63;100.00;101430.25;5031954;28;20038;-82
2023/12/20 04:09:26;;;;;;;32.10;11.25;;;;;;;3.64;100.00;101434.66;5027229;28;20065;-82
2023/12/20 04:11:51;;;;;;;28.52;11.32;;;;;;;3.64;100.00;101436.44;5015445;28;20036;-82
2023/12/20 04:14:17;;;;;;;32.33;11.98;;;;;;;3.70;100.00;101445.09;5032724;28;20128;-84
2023/12/20 04:16:43;;;;;;;30.95;11.13;;;;;;;3.67;100.00;101439.00;5018719;28;20053;-82
2023/12/20 04:19:08;;;;;;;26.80;10.65;;;;;;;3.72;100.00;101451.22;5029476;28;20236;-82
2023/12/20 04:21:33;;;;;;;34.60;11.48;;;;;;;3.70;100.00;101447.72;5022241;28;20064;-84
2023/12/20 04:23:59;;;;;;;28.88;10.38;;;;;;;3.79;100.00;101459.91;5021307;28;20084;-82
2023/12/20 04:26:24;;;;;;;34.25;11.18;;;;;;;3.80;100.00;101451.09;5030075;28;20030;-83
2023/12/20 04:28:49;;;;;;;28.13;11.00;;;;;;;3.81;100.00;101449.38;5020296;28;20042;-83
2023/12/20 04:31:15;;;;;;;28.95;10.88;;;;;;;3.80;100.00;101437.94;5010328;28;20037;-82
2023/12/20 04:33:40;;;;;;;27.88;10.70;;;;;;;3.82;100.00;101451.97;5025159;28;20784;-82
2023/12/20 04:36:06;;;;;;;28.30;11.00;;;;;;;3.80;100.00;101451.09;5015794;28;20111;-83
2023/12/20 04:38:31;;;;;;;27.10;11.68;;;;;;;3.80;100.00;101445.84;5032931;28;20044;-83
2023/12/20 04:40:56;;;;;;;28.25;10.95;;;;;;;3.79;100.00;101438.84;5026474;28;20434;-82
2023/12/20 04:43:22;;;;;;;28.40;10.63;;;;;;;3.83;100.00;101440.53;5006458;28;20052;-83
2023/12/20 04:45:47;;;;;;;29.13;10.05;;;;;;;3.81;100.00;101437.06;5016946;28;20048;-82
2023/12/20 04:48:13;;;;;;;31.65;11.35;;;;;;;3.79;100.00;101428.31;5023512;28;20562;-83
2023/12/20 04:50:38;;;;;;;45.92;13.05;;;;;;;3.89;100.00;101444.88;5025857;28;20025;-83
2023/12/20 04:53:04;;;;;;;35.78;11.07;;;;;;;3.86;100.00;101439.66;5032099;28;20058;-84
2023/12/20 04:55:29;;;;;;;26.52;10.68;;;;;;;3.79;100.00;101416.91;5030080;28;20038;-84
2023/12/20 04:57:56;;;;;;;27.60;10.77;;;;;;;3.87;100.00;101422.94;5011384;28;20543;-84
2023/12/20 05:00:21;;;;;;;39.50;11.60;;;;;;;3.95;100.00;101443.00;5007875;28;20041;-83
2023/12/20 05:02:47;;;;;;;31.35;11.43;;;;;;;3.94;100.00;101438.66;5026675;28;20048;-84
2023/12/20 05:05:17;;;;;;;27.58;11.65;;;;;;;3.96;100.00;101444.75;5029019;28;20591;-83
2023/12/20 05:07:43;;;;;;;33.78;11.75;;;;;;;3.92;100.00;101421.09;5023085;28;20370;-85
2023/12/20 05:10:09;;;;;;;26.95;11.32;;;;;;;3.98;100.00;101434.19;5017598;28;20083;-83
2023/12/20 05:12:34;;;;;;;31.38;11.93;;;;;;;3.93;100.00;101422.84;5032381;28;20049;-83
2023/12/20 05:15:00;;;;;;;36.03;12.40;;;;;;;3.91;100.00;101417.59;5029917;28;20037;-84
2023/12/20 05:17:25;;;;;;;34.35;12.23;;;;;;;3.95;100.00;101421.06;5023840;28;20042;-83
2023/12/20 05:19:51;;;;;;;29.48;12.45;;;;;;;3.97;100.00;101422.81;5028689;28;20107;-82
2023/12/20 05:22:17;;;;;;;32.42;12.43;;;;;;;3.90;100.00;101410.59;5014434;28;20452;-84
2023/12/20 05:24:42;;;;;;;32.50;11.90;;;;;;;3.99;100.00;101422.78;5024071;28;20042;-84
2023/12/20 05:27:07;;;;;;;34.75;12.75;;;;;;;3.94;100.00;101416.69;5015285;28;20091;-82
2023/12/20 05:29:33;;;;;;;36.35;12.35;;;;;;;3.97;100.00;101417.53;5021565;28;20041;-83
2023/12/20 05:31:59;;;;;;;29.50;11.02;;;;;;;4.03;100.00;101427.09;5022079;28;20415;-84
2023/12/20 05:34:24;;;;;;;33.40;11.43;;;;;;;4.03;100.00;101423.59;5019971;28;20511;-83
2023/12/20 05:36:49;;;;;;;36.85;11.32;;;;;;;3.98;100.00;101413.13;5035225;28;20064;-83
2023/12/20 05:39:15;;;;;;;30.80;12.07;;;;;;;4.04;100.00;101422.69;5010403;28;20021;-83
2023/12/20 05:41:40;;;;;;;28.25;10.48;;;;;;;4.06;100.00;101413.03;5021961;28;20121;-83
2023/12/20 05:44:05;;;;;;;28.45;12.00;;;;;;;4.07;100.00;101422.66;5013353;28;20393;-84
2023/12/20 05:46:31;;;;;;;31.83;11.02;;;;;;;4.06;100.00;101423.56;5011654;28;20476;-83
2023/12/20 05:48:56;;;;;;;28.88;11.50;;;;;;;4.04;100.00;101417.44;5023716;28;20064;-83
2023/12/20 05:51:21;;;;;;;33.42;11.57;;;;;;;4.06;100.00;101434.09;5022421;28;20110;-82
2023/12/20 05:53:47;;;;;;;31.10;10.25;;;;;;;4.06;100.00;101429.69;5015420;28;20072;-82
2023/12/20 05:56:16;;;;;;;33.40;11.18;;;;;;;4.09;100.00;101432.25;5030781;28;20178;-82
2023/12/20 05:58:41;;;;;;;30.55;11.10;;;;;;;4.12;100.00;101434.00;5008951;28;20484;-85
2023/12/20 06:01:08;;;;;;;30.02;10.50;;;;;;;3.98;100.00;101408.72;5010968;28;20028;-84
2023/12/20 06:03:34;;;;;;;30.08;10.85;;;;;;;4.03;100.00;101423.59;5027998;28;20048;-81
2023/12/20 06:06:00;;;;;;;25.73;10.32;;;;;;;4.06;100.00;101437.59;5034296;28;20042;-83
2023/12/20 06:08:26;;;;;;;26.25;11.23;;;;;;;4.05;100.00;101437.59;5037212;28;20574;-83
2023/12/20 06:10:51;;;;;;;25.60;10.60;;;;;;;4.02;100.00;101449.06;5028451;28;20030;-82
2023/12/20 06:13:17;;;;;;;29.63;10.82;;;;;;;3.96;100.00;101447.38;5039846;28;20037;-84
2023/12/20 06:15:42;;;;;;;31.23;10.43;;;;;;;3.94;100.00;101443.91;5027947;28;20044;-82
2023/12/20 06:18:07;;;;;;;26.25;10.70;;;;;;;3.88;100.00;101436.06;5028502;28;20673;-83
2023/12/20 06:20:33;;;;;;;28.30;9.77;;;;;;;3.90;100.00;101447.47;5028232;28;20909;-83
2023/12/20 06:22:58;;;;;;;25.65;9.98;;;;;;;3.84;100.00;101442.28;5022352;28;20268;-82
2023/12/20 06:25:24;;;;;;;31.13;10.00;;;;;;;3.81;100.00;101446.75;5022590;28;20033;-83
2023/12/20 06:27:50;;;;;;;26.27;9.63;;;;;;;3.66;100.00;101437.25;5017769;28;20033;-82
2023/12/20 06:30:16;;;;;;;28.13;9.25;;;;;;;3.68;100.00;101446.03;5012744;28;20080;-82
2023/12/20 06:32:42;;;;;;;32.55;9.98;;;;;;;3.65;100.00;101453.97;5033892;28;20052;-82
2023/12/20 06:35:08;;;;;;;28.20;9.50;;;;;;;3.62;100.00;101448.72;5023253;28;20034;-82
2023/12/20 06:37:34;;;;;;;23.98;8.35;;;;;;;3.59;100.00;101449.63;5018229;28;20074;-81
2023/12/20 06:39:59;;;;;;;30.80;10.23;;;;;;;3.57;100.00;101455.81;5024510;28;20048;-85
2023/12/20 06:42:25;;;;;;;23.85;8.57;;;;;;;3.53;100.00;101451.47;5006016;28;20057;-81
2023/12/20 06:44:50;;;;;;;28.08;9.38;;;;;;;3.48;100.00;101444.50;5028858;28;20040;-82
2023/12/20 06:47:15;;;;;;;24.20;8.10;;;;;;;3.47;100.00;101448.03;5024672;28;20036;-83
2023/12/20 06:49:41;;;;;;;25.83;8.60;;;;;;;3.48;100.00;101443.63;5025595;28;20121;-83
2023/12/20 06:52:06;;;;;;;27.58;9.38;;;;;;;3.38;100.00;101429.69;5023644;28;20045;-83
2023/12/20 06:54:33;;;;;;;32.08;9.30;;;;;;;3.47;100.00;101440.13;5033810;28;20059;-82
2023/12/20 06:56:59;;;;;;;31.90;9.25;;;;;;;3.43;100.00;101435.81;5016220;28;20105;-82
2023/12/20 06:59:24;;;;;;;31.85;10.13;;;;;;;3.53;100.00;101439.19;5015992;28;20072;-82
2023/12/20 07:01:50;;;;;;;30.58;10.65;;;;;;;3.54;100.00;101430.38;5024132;28;20053;-83
2023/12/20 07:04:19;;;;;;;29.73;9.32;;;;;;;3.64;100.00;101446.97;5020935;28;20135;-83
2023/12/20 07:06:45;;;;;;;23.52;8.50;;;;;;;3.56;100.00;101427.75;5013559;28;20033;-83
2023/12/20 07:09:10;;;;;;;23.35;8.50;;;;;;;3.65;100.00;101433.75;5016557;28;20037;-83
2023/12/20 07:11:36;;;;;;;30.25;9.40;;;;;;;3.71;100.00;101440.69;5006382;28;20036;-84
2023/12/20 07:14:01;;;;;;;27.65;8.27;;;;;;;3.69;100.00;101439.88;5026567;28;20775;-83
2023/12/20 07:16:26;;;;;;;20.48;7.85;;;;;;;3.64;100.00;101433.78;5018228;28;20065;-82
2023/12/20 07:18:52;;;;;;;26.70;8.25;;;;;;;3.60;100.00;101429.47;5023300;28;20041;-82
2023/12/20 07:21:17;;;;;;;26.95;8.52;;;;;;;3.56;100.00;101426.00;5024559;28;20100;-82
2023/12/20 07:23:43;;;;;;;27.65;8.60;;;;;;;3.52;100.00;101421.66;5015158;28;20179;-84
2023/12/20 07:26:08;;;;;;;21.27;8.20;;;;;;;3.48;100.00;101428.72;5011849;28;20050;-83
2023/12/20 07:28:34;;;;;;;22.80;9.02;;;;;;;3.42;100.00;101418.25;5018777;28;20903;-82
2023/12/20 07:30:59;;;;;;;27.00;8.50;;;;;;;3.43;100.00;101425.28;5004425;28;20056;-83
2023/12/20 07:33:24;;;;;;;25.17;8.60;;;;;;;3.59;100.00;101441.72;5024429;28;20053;-83
2023/12/20 07:35:51;;;;;;;24.63;8.20;;;;;;;3.66;100.00;101432.88;5018292;28;20729;-82
2023/12/20 07:38:17;;;;;;;32.30;8.80;;;;;;;3.70;100.00;101438.97;5022875;28;20539;-82
2023/12/20 07:40:42;;;;;;;28.38;8.32;;;;;;;3.72;100.00;101438.06;5027067;28;20104;-81
2023/12/20 07:43:08;;;;;;;23.27;8.00;;;;;;;3.83;100.00;101440.53;5029839;28;20021;-84
2023/12/20 07:45:33;;;;;;;22.35;7.82;;;;;;;3.86;100.00;101442.28;5025845;28;20037;-83
2023/12/20 07:47:59;;;;;;;22.38;8.07;;;;;;;3.90;100.00;101446.59;5025851;28;20047;-84
2023/12/20 07:50:24;;;;;;;25.25;8.48;;;;;;;3.90;100.00;101447.47;5025873;28;20040;-84
2023/12/20 07:52:49;;;;;;;27.30;8.13;;;;;;;3.92;100.00;101437.78;5018891;28;20033;-82
2023/12/20 07:55:18;;;;;;;19.95;7.78;;;;;;;3.97;100.00;101435.97;5024943;28;20055;-81
2023/12/20 07:57:43;;;;;;;29.55;8.55;;;;;;;3.94;100.00;101430.75;5012807;28;20049;-82
2023/12/20 08:00:10;;;;;;;26.67;8.40;;;;;;;3.97;100.00;101438.59;5022676;28;20667;-82
2023/12/20 08:02:35;;;;;;;28.48;8.20;;;;;;;4.03;100.00;101444.69;5020289;28;20033;-81
2023/12/20 08:05:00;;;;;;;23.27;7.45;;;;;;;4.03;100.00;101435.00;5023784;28;20038;-82
2023/12/20 08:07:26;;;;;;;24.50;7.43;;;;;;;4.06;100.00;101436.72;5001371;28;20038;-82
2023/12/20 08:09:52;;;;;;;25.02;7.38;;;;;;;3.98;100.00;101429.81;5020979;28;20037;-82
2023/12/20 08:12:17;;;;;;;22.70;7.63;;;;;;;4.10;100.00;101433.16;5017103;28;20053;-82
2023/12/20 08:14:42;;;;;;;23.85;8.27;;;;;;;4.09;100.00;101445.44;5024270;28;20137;-83
2023/12/20 08:17:08;;;;;;;22.73;8.32;;;;;;;4.13;100.00;101443.63;5017853;28;20030;-82
2023/12/20 08:19:33;;;;;;;26.67;8.05;;;;;;;4.14;100.00;101450.63;5019027;28;20057;-83
2023/12/20 08:21:58;;;;;;;25.67;8.13;;;;;;;4.15;100.00;101449.75;5028225;28;20112;-83
2023/12/20 08:24:24;;;;;;;20.52;7.28;;;;;;;4.16;100.00;101449.72;5021912;28;20041;-83
2023/12/20 08:26:49;;;;;;;24.98;7.53;;;;;;;4.21;100.00;101457.56;5016857;28;20770;-82
2023/12/20 08:29:18;;;;;;;32.58;7.68;;;;;;;4.21;100.00;101461.06;5018559;28;20439;-83
2023/12/20 08:31:43;;;;;;;19.98;7.40;;;;;;;4.25;100.00;101464.53;5008623;28;20447;-83
2023/12/20 08:34:08;;;;;;;24.67;7.57;;;;;;;4.25;100.00;101459.25;5007343;28;20055;-83
2023/12/20 08:36:34;;;;;;;27.00;7.85;;;;;;;4.27;100.00;101460.13;5028327;28;20780;-84
2023/12/20 08:39:00;;;;;;;20.35;7.38;;;;;;;4.29;100.00;101466.22;5037919;28;20544;-85
2023/12/20 08:41:26;;;;;;;25.30;8.13;;;;;;;4.32;100.00;101465.31;5030229;28;20065;-84
2023/12/20 08:43:51;;;;;;;28.20;7.85;;;;;;;4.34;100.00;101459.13;5028275;28;20064;-82
2023/12/20 08:46:16;;;;;;;24.17;7.57;;;;;;;4.36;100.00;101456.47;5003457;28;20075;-85
2023/12/20 08:48:42;;;;;;;26.17;7.68;;;;;;;4.32;100.00;101439.84;5023348;28;20235;-86
2023/12/20 08:51:08;;;;;;;20.20;7.45;;;;;;;4.43;100.00;101453.72;5025225;28;20033;-85
2023/12/20 08:53:34;;;;;;;21.77;7.68;;;;;;;4.33;100.00;101438.94;5029821;28;20056;-86
2023/12/20 08:56:01;;;;;;;24.63;7.18;;;;;;;4.45;100.00;101441.38;5041222;28;20427;-85
2023/12/20 08:58:26;;;;;;;23.98;7.57;;;;;;;4.44;100.00;101423.84;5013420;28;20146;-85
2023/12/20 09:00:51;;;;;;;23.50;7.68;;;;;;;4.50;100.00;101430.75;5021476;28;20025;-86
2023/12/20 09:03:17;;;;;;;24.30;7.55;;;;;;;4.47;100.00;101433.44;5021111;28;20504;-84
2023/12/20 09:05:42;;;;;;;18.30;7.13;;;;;;;4.53;100.00;101435.13;5024047;28;20541;-84
2023/12/20 09:08:09;;;;;;;22.25;6.95;;;;;;;4.59;100.00;101433.25;5026764;28;20094;-83
2023/12/20 09:10:35;;;;;;;21.55;7.35;;;;;;;4.63;100.00;101426.16;5034967;28;20128;-84
2023/12/20 09:13:00;;;;;;;27.35;7.40;;;;;;;4.60;100.00;101428.81;5037732;28;20426;-88
2023/12/20 09:15:26;;;;;;;23.38;7.22;;;;;;;4.63;100.00;101434.06;5038257;28;20083;-85
2023/12/20 09:17:52;;;;;;;26.00;7.60;;;;;;;4.52;100.00;101407.03;5030106;28;20036;-85
2023/12/20 09:20:18;;;;;;;21.25;6.65;;;;;;;4.65;100.00;101434.91;5030019;28;20098;-86
2023/12/20 09:22:43;;;;;;;19.67;7.00;;;;;;;4.62;100.00;101427.91;5017964;28;20048;-88
2023/12/20 09:25:13;;;;;;;22.52;7.15;;;;;;;4.72;100.00;101437.44;5029105;28;20037;-87
2023/12/20 09:27:39;;;;;;;24.95;7.65;;;;;;;4.61;100.00;101412.13;5023588;28;20037;-88
2023/12/20 09:30:05;;;;;;;22.35;7.03;;;;;;;4.81;100.00;101446.06;5006546;28;20029;-87
2023/12/20 09:32:31;;;;;;;14.52;6.15;;;;;;;4.73;100.00;101443.56;5030405;28;20357;-88
2023/12/20 09:34:57;;;;;;;21.58;6.88;;;;;;;4.57;100.00;101426.25;5027861;28;20040;-85
2023/12/20 09:37:27;;;;;;;20.83;6.50;;;;;;;4.70;100.00;101443.63;5023974;28;20068;-86
2023/12/20 09:39:53;;;;;;;16.42;6.22;;;;;;;4.68;100.00;101437.47;5029846;28;20061;-85
2023/12/20 09:42:28;;;;;;;20.75;6.55;;;;;;;4.70;100.00;101446.25;5030519;28;20101;-87
2023/12/20 09:44:54;;;;;;;23.83;6.80;;;;;;;4.68;100.00;101438.38;5019515;28;20045;-86
2023/12/20 09:47:23;;;;;;;18.98;6.78;;;;;;;4.74;100.00;101430.34;5020734;28;20037;-85
2023/12/20 09:49:49;;;;;;;18.45;6.63;;;;;;;4.79;100.00;101435.53;5023615;28;20045;-86
2023/12/20 09:52:19;;;;;;;18.48;6.03;;;;;;;4.84;100.00;101436.31;5026316;28;20048;-86
2023/12/20 09:54:47;;;;;;;19.40;6.85;;;;;;;4.77;100.00;101431.22;5022415;28;20793;-86
2023/12/20 09:57:12;;;;;;;15.63;5.68;;;;;;;4.66;100.00;101397.97;5017868;28;20053;-87
2023/12/20 09:59:38;;;;;;;15.52;6.18;;;;;;;4.76;100.00;101427.66;5025065;28;20021;-86
2023/12/20 10:02:08;;;;;;;17.42;6.70;;;;;;;4.73;100.00;101418.06;5024830;28;20458;-87
2023/12/20 10:04:34;;;;;;;16.60;6.00;;;;;;;4.74;100.00;101429.47;5025476;28;20054;-86
2023/12/20 10:07:05;;;;;;;23.90;7.80;;;;;;;4.73;100.00;101430.38;5015873;28;20048;-86
2023/12/20 10:09:32;;;;;;;20.90;6.78;;;;;;;4.71;100.00;101430.38;5025341;28;20041;-88
2023/12/20 10:11:57;;;;;;;21.13;7.22;;;;;;;4.69;100.00;101408.47;5038903;28;20033;-88
2023/12/20 10:14:23;;;;;;;21.98;6.90;;;;;;;4.84;100.00;101427.53;5022595;28;20420;-87
2023/12/20 10:16:48;;;;;;;17.65;6.65;;;;;;;4.89;100.00;101423.94;5026830;28;20105;-87
2023/12/20 10:19:19;;;;;;;18.88;6.43;;;;;;;4.90;100.00;101430.94;5030668;28;20120;-88
2023/12/20 10:21:45;;;;;;;19.30;6.32;;;;;;;4.87;100.00;101417.81;5048354;28;20040;-87
2023/12/20 10:24:17;;;;;;;18.60;5.95;;;;;;;4.88;100.00;101421.31;5021437;28;20045;-87
2023/12/20 10:26:43;;;;;;;15.38;7.45;;;;;;;4.85;100.00;101424.00;5020896;28;20637;-89
2023/12/20 10:29:10;;;;;;;18.58;6.65;;;;;;;4.78;100.00;101422.38;5027120;28;20177;-86
2023/12/20 10:31:36;;;;;;;18.98;6.10;;;;;;;4.83;100.00;101439.88;5030462;28;20690;-88
2023/12/20 10:34:02;;;;;;;20.40;6.80;;;;;;;4.82;100.00;101432.84;5032359;28;20067;-87
2023/12/20 10:36:29;;;;;;;21.35;5.95;;;;;;;4.81;100.00;101428.50;5023921;28;20071;-87
2023/12/20 10:38:57;;;;;;;18.20;6.45;;;;;;;4.90;100.00;101445.91;5031149;28;20042;-87
2023/12/20 10:41:29;;;;;;;19.55;6.28;;;;;;;4.89;100.00;101442.41;5008077;28;20755;-87
2023/12/20 10:43:59;;;;;;;20.40;6.55;;;;;;;4.91;100.00;101435.31;5031213;28;20045;-87
2023/12/20 10:46:26;;;;;;;19.08;6.57;;;;;;;4.92;100.00;101425.63;5038715;28;20037;-88
2023/12/20 10:48:54;;;;;;;25.80;6.38;;;;;;;4.91;100.00;101408.94;5022505;28;20126;-88
2023/12/20 10:51:21;;;;;;;19.08;6.40;;;;;;;4.92;100.00;101405.41;5023436;28;20034;-88
2023/12/20 10:53:49;;;;;;;18.75;6.35;;;;;;;4.92;100.00;101410.69;5028462;28;20529;-86
2023/12/20 10:56:19;;;;;;;19.40;6.40;;;;;;;4.95;100.00;101405.34;5027808;28;20049;-89
2023/12/20 10:58:49;;;;;;;18.02;6.43;;;;;;;5.02;100.00;101405.22;5021470;28;20120;-92
2023/12/20 11:01:20;;;;;;;17.73;7.13;;;;;;;4.99;100.00;101400.88;5028741;28;20049;-93
2023/12/20 11:03:52;;;;;;;21.15;6.95;;;;;;;5.03;100.00;101385.88;5032206;28;20037;-88
2023/12/20 11:06:48;;;;;;;17.58;6.65;;;;;;;4.90;100.00;101367.66;5025309;28;20038;-90
2023/12/20 11:09:29;;;;;;;23.65;7.55;;;;;;;5.19;100.00;101397.88;5022591;28;20029;-90